sensor_id;sensor_type;location;lat;lon;timestamp;temperature;humidity
33717;DHT22;20046;50.746;7.072;2023-04-01T00:00:28;11.60;99.90
33717;DHT22;20046;50.746;7.072;2023-04-01T00:02:53;11.60;99.90
33717;DHT22;20046;50.746;7.072;2023-04-01T00:05:19;11.50;99.90
33717;DHT22;20046;50.746;7.072;2023-04-01T00:07:45;11.50;99.90
33717;DHT22;20046;50.746;7.072;2023-04-01T00:10:11;11.50;99.90
33717;DHT22;20046;50.746;7.072;2023-04-01T00:12:37;11.50;99.90
33717;DHT22;20046;50.746;7.072;2023-04-01T00:15:03;11.50;99.90
33717;DHT22;20046;50.746;7.072;2023-04-01T00:17:29;11.50;99.90
33717;DHT22;20046;50.746;7.072;2023-04-01T00:19:55;11.40;99.90
33717;DHT22;20046;50.746;7.072;2023-04-01T00:22:21;11.40;99.90
33717;DHT22;20046;50.746;7.072;2023-04-01T00:24:47;11.40;99.90
33717;DHT22;20046;50.746;7.072;2023-04-01T00:27:13;11.40;99.90
33717;DHT22;20046;50.746;7.072;2023-04-01T00:29:41;11.40;99.90
33717;DHT22;20046;50.746;7.072;2023-04-01T00:32:06;11.40;99.90
33717;DHT22;20046;50.746;7.072;2023-04-01T00:34:32;11.40;99.90
33717;DHT22;20046;50.746;7.072;2023-04-01T00:36:57;11.40;99.90
33717;DHT22;20046;50.746;7.072;2023-04-01T00:39:23;11.40;99.90
33717;DHT22;20046;50.746;7.072;2023-04-01T00:41:48;11.40;99.90
33717;DHT22;20046;50.746;7.072;2023-04-01T00:44:15;11.40;99.90
33717;DHT22;20046;50.746;7.072;2023-04-01T00:46:41;11.40;99.90
33717;DHT22;20046;50.746;7.072;2023-04-01T00:49:07;11.40;99.90
33717;DHT22;20046;50.746;7.072;2023-04-01T00:51:32;11.40;99.90
33717;DHT22;20046;50.746;7.072;2023-04-01T00:54:00;11.40;99.90
33717;DHT22;20046;50.746;7.072;2023-04-01T00:56:35;11.40;99.90
33717;DHT22;20046;50.746;7.072;2023-04-01T00:59:10;11.40;99.90
33717;DHT22;20046;50.746;7.072;2023-04-01T01:01:36;11.40;99.90
33717;DHT22;20046;50.746;7.072;2023-04-01T01:04:02;11.30;99.90
33717;DHT22;20046;50.746;7.072;2023-04-01T01:14:02;11.30;99.90
33717;DHT22;20046;50.746;7.072;2023-04-01T01:16:32;11.30;99.90
33717;DHT22;20046;50.746;7.072;2023-04-01T01:19:21;11.40;99.90
33717;DHT22;20046;50.746;7.072;2023-04-01T01:22:27;11.30;99.90
33717;DHT22;20046;50.746;7.072;2023-04-01T01:27:16;11.30;99.90
33717;DHT22;20046;50.746;7.072;2023-04-01T01:29:59;11.30;99.90
33717;DHT22;20046;50.746;7.072;2023-04-01T01:35:08;11.30;99.90
33717;DHT22;20046;50.746;7.072;2023-04-01T01:37:36;11.30;99.90
33717;DHT22;20046;50.746;7.072;2023-04-01T01:40:05;11.30;99.90
33717;DHT22;20046;50.746;7.072;2023-04-01T01:42:31;11.30;99.90
33717;DHT22;20046;50.746;7.072;2023-04-01T01:44:58;11.30;99.90
33717;DHT22;20046;50.746;7.072;2023-04-01T01:47:25;11.30;99.90
33717;DHT22;20046;50.746;7.072;2023-04-01T01:49:51;11.20;99.90
33717;DHT22;20046;50.746;7.072;2023-04-01T01:52:17;11.20;99.90
33717;DHT22;20046;50.746;7.072;2023-04-01T01:54:50;11.20;99.90
33717;DHT22;20046;50.746;7.072;2023-04-01T01:57:15;11.20;99.90
33717;DHT22;20046;50.746;7.072;2023-04-01T01:59:42;11.20;99.90
33717;DHT22;20046;50.746;7.072;2023-04-01T02:02:08;11.20;99.90
33717;DHT22;20046;50.746;7.072;2023-04-01T02:04:38;11.20;99.90
33717;DHT22;20046;50.746;7.072;2023-04-01T02:07:07;11.20;99.90
33717;DHT22;20046;50.746;7.072;2023-04-01T02:09:34;11.20;99.90
33717;DHT22;20046;50.746;7.072;2023-04-01T02:12:04;11.20;99.90
33717;DHT22;20046;50.746;7.072;2023-04-01T02:17:04;11.20;99.90
33717;DHT22;20046;50.746;7.072;2023-04-01T02:19:36;11.20;99.90
33717;DHT22;20046;50.746;7.072;2023-04-01T02:22:02;11.20;99.90
33717;DHT22;20046;50.746;7.072;2023-04-01T02:24:30;11.20;99.90
33717;DHT22;20046;50.746;7.072;2023-04-01T02:26:56;11.20;99.90
33717;DHT22;20046;50.746;7.072;2023-04-01T02:29:22;11.10;99.90
33717;DHT22;20046;50.746;7.072;2023-04-01T02:31:48;11.10;99.90
33717;DHT22;20046;50.746;7.072;2023-04-01T02:34:15;11.10;99.90
33717;DHT22;20046;50.746;7.072;2023-04-01T02:36:41;11.00;99.90
33717;DHT22;20046;50.746;7.072;2023-04-01T02:39:06;11.00;99.90
33717;DHT22;20046;50.746;7.072;2023-04-01T02:41:38;11.00;99.90
33717;DHT22;20046;50.746;7.072;2023-04-01T02:44:04;11.00;99.90
33717;DHT22;20046;50.746;7.072;2023-04-01T02:46:29;10.90;99.90
33717;DHT22;20046;50.746;7.072;2023-04-01T02:48:55;10.90;99.90
33717;DHT22;20046;50.746;7.072;2023-04-01T02:51:20;10.90;99.90
33717;DHT22;20046;50.746;7.072;2023-04-01T02:53:46;10.90;99.90
33717;DHT22;20046;50.746;7.072;2023-04-01T02:56:11;10.80;99.90
33717;DHT22;20046;50.746;7.072;2023-04-01T02:58:37;10.90;99.90
33717;DHT22;20046;50.746;7.072;2023-04-01T03:01:02;10.80;99.90
33717;DHT22;20046;50.746;7.072;2023-04-01T03:03:27;10.80;99.90
33717;DHT22;20046;50.746;7.072;2023-04-01T03:05:53;10.60;99.90
33717;DHT22;20046;50.746;7.072;2023-04-01T03:08:21;10.50;99.90
33717;DHT22;20046;50.746;7.072;2023-04-01T03:10:46;10.50;99.90
33717;DHT22;20046;50.746;7.072;2023-04-01T03:13:12;10.40;99.90
33717;DHT22;20046;50.746;7.072;2023-04-01T03:15:37;10.40;99.90
33717;DHT22;20046;50.746;7.072;2023-04-01T03:18:03;10.30;99.90
33717;DHT22;20046;50.746;7.072;2023-04-01T03:20:28;10.20;99.90
33717;DHT22;20046;50.746;7.072;2023-04-01T03:22:54;9.90;99.90
33717;DHT22;20046;50.746;7.072;2023-04-01T03:25:20;9.90;99.90
33717;DHT22;20046;50.746;7.072;2023-04-01T03:27:45;9.90;99.90
33717;DHT22;20046;50.746;7.072;2023-04-01T03:30:11;9.90;99.90
33717;DHT22;20046;50.746;7.072;2023-04-01T03:32:36;9.90;99.90
33717;DHT22;20046;50.746;7.072;2023-04-01T03:35:02;10.00;99.90
33717;DHT22;20046;50.746;7.072;2023-04-01T03:37:27;10.10;99.90
33717;DHT22;20046;50.746;7.072;2023-04-01T03:39:53;10.20;99.90
33717;DHT22;20046;50.746;7.072;2023-04-01T03:42:19;10.30;99.90
33717;DHT22;20046;50.746;7.072;2023-04-01T03:44:44;10.30;99.90
33717;DHT22;20046;50.746;7.072;2023-04-01T03:47:10;10.30;99.90
33717;DHT22;20046;50.746;7.072;2023-04-01T03:49:35;10.40;99.90
33717;DHT22;20046;50.746;7.072;2023-04-01T03:52:01;10.40;99.90
33717;DHT22;20046;50.746;7.072;2023-04-01T03:54:26;10.50;99.90
33717;DHT22;20046;50.746;7.072;2023-04-01T03:56:52;10.50;99.90
33717;DHT22;20046;50.746;7.072;2023-04-01T03:59:17;10.60;99.90
33717;DHT22;20046;50.746;7.072;2023-04-01T04:01:43;10.60;99.90
33717;DHT22;20046;50.746;7.072;2023-04-01T04:04:10;10.60;99.90
33717;DHT22;20046;50.746;7.072;2023-04-01T04:06:36;10.60;99.90
33717;DHT22;20046;50.746;7.072;2023-04-01T04:09:02;10.60;99.90
33717;DHT22;20046;50.746;7.072;2023-04-01T04:11:27;10.60;99.90
33717;DHT22;20046;50.746;7.072;2023-04-01T04:13:55;10.60;99.90
33717;DHT22;20046;50.746;7.072;2023-04-01T04:16:20;10.60;99.90
33717;DHT22;20046;50.746;7.072;2023-04-01T04:18:46;10.70;99.90
33717;DHT22;20046;50.746;7.072;2023-04-01T04:21:12;10.70;99.90
33717;DHT22;20046;50.746;7.072;2023-04-01T04:23:38;10.70;99.90
33717;DHT22;20046;50.746;7.072;2023-04-01T04:26:04;10.70;99.90
33717;DHT22;20046;50.746;7.072;2023-04-01T04:28:30;10.70;99.90
33717;DHT22;20046;50.746;7.072;2023-04-01T04:30:56;10.70;99.90
33717;DHT22;20046;50.746;7.072;2023-04-01T04:33:22;10.80;99.90
33717;DHT22;20046;50.746;7.072;2023-04-01T04:35:48;10.70;99.90
33717;DHT22;20046;50.746;7.072;2023-04-01T04:38:14;10.70;99.90
33717;DHT22;20046;50.746;7.072;2023-04-01T04:40:40;10.70;99.90
33717;DHT22;20046;50.746;7.072;2023-04-01T04:43:06;10.70;99.90
33717;DHT22;20046;50.746;7.072;2023-04-01T04:45:31;10.70;99.90
33717;DHT22;20046;50.746;7.072;2023-04-01T04:47:57;10.70;99.90
33717;DHT22;20046;50.746;7.072;2023-04-01T04:50:22;10.60;99.90
33717;DHT22;20046;50.746;7.072;2023-04-01T04:52:48;10.60;99.90
33717;DHT22;20046;50.746;7.072;2023-04-01T04:55:14;10.60;99.90
33717;DHT22;20046;50.746;7.072;2023-04-01T04:57:40;10.60;99.90
33717;DHT22;20046;50.746;7.072;2023-04-01T05:00:06;10.60;99.90
33717;DHT22;20046;50.746;7.072;2023-04-01T05:02:31;10.60;99.90
33717;DHT22;20046;50.746;7.072;2023-04-01T05:04:57;10.60;99.90
33717;DHT22;20046;50.746;7.072;2023-04-01T05:07:22;10.50;99.90
33717;DHT22;20046;50.746;7.072;2023-04-01T05:09:48;10.50;99.90
33717;DHT22;20046;50.746;7.072;2023-04-01T05:12:13;10.50;99.90
33717;DHT22;20046;50.746;7.072;2023-04-01T05:14:39;10.50;99.90
33717;DHT22;20046;50.746;7.072;2023-04-01T05:17:08;10.40;99.90
33717;DHT22;20046;50.746;7.072;2023-04-01T05:19:33;10.30;99.90
33717;DHT22;20046;50.746;7.072;2023-04-01T05:21:59;10.30;99.90
33717;DHT22;20046;50.746;7.072;2023-04-01T05:24:24;10.30;99.90
33717;DHT22;20046;50.746;7.072;2023-04-01T05:26:50;10.20;99.90
33717;DHT22;20046;50.746;7.072;2023-04-01T05:29:15;10.20;99.90
33717;DHT22;20046;50.746;7.072;2023-04-01T05:31:40;10.20;99.90
33717;DHT22;20046;50.746;7.072;2023-04-01T05:34:06;10.20;99.90
33717;DHT22;20046;50.746;7.072;2023-04-01T05:36:31;10.20;99.90
33717;DHT22;20046;50.746;7.072;2023-04-01T05:38:57;10.20;99.90
33717;DHT22;20046;50.746;7.072;2023-04-01T05:41:22;10.10;99.90
33717;DHT22;20046;50.746;7.072;2023-04-01T05:43:48;10.10;99.90
33717;DHT22;20046;50.746;7.072;2023-04-01T05:46:13;10.10;99.90
33717;DHT22;20046;50.746;7.072;2023-04-01T05:48:39;10.00;99.90
33717;DHT22;20046;50.746;7.072;2023-04-01T05:51:04;10.00;99.90
33717;DHT22;20046;50.746;7.072;2023-04-01T05:53:31;9.90;99.90
33717;DHT22;20046;50.746;7.072;2023-04-01T05:55:56;10.00;99.90
33717;DHT22;20046;50.746;7.072;2023-04-01T05:58:22;9.90;99.90
33717;DHT22;20046;50.746;7.072;2023-04-01T06:00:47;10.00;99.90
33717;DHT22;20046;50.746;7.072;2023-04-01T06:03:13;10.00;99.90
33717;DHT22;20046;50.746;7.072;2023-04-01T06:05:40;10.00;99.90
33717;DHT22;20046;50.746;7.072;2023-04-01T06:08:09;10.10;99.90
33717;DHT22;20046;50.746;7.072;2023-04-01T06:10:38;10.20;99.90
33717;DHT22;20046;50.746;7.072;2023-04-01T06:18:50;10.30;99.90
33717;DHT22;20046;50.746;7.072;2023-04-01T06:23:55;10.30;99.90
33717;DHT22;20046;50.746;7.072;2023-04-01T06:29:17;10.30;99.90
33717;DHT22;20046;50.746;7.072;2023-04-01T06:42:05;10.50;99.90
33717;DHT22;20046;50.746;7.072;2023-04-01T06:47:04;10.50;99.90
33717;DHT22;20046;50.746;7.072;2023-04-01T06:54:35;10.60;99.90
33717;DHT22;20046;50.746;7.072;2023-04-01T06:57:05;10.70;99.90
33717;DHT22;20046;50.746;7.072;2023-04-01T06:59:34;10.80;99.90
33717;DHT22;20046;50.746;7.072;2023-04-01T07:02:05;10.80;99.90
33717;DHT22;20046;50.746;7.072;2023-04-01T07:04:40;10.80;99.90
33717;DHT22;20046;50.746;7.072;2023-04-01T07:09:37;10.90;99.90
33717;DHT22;20046;50.746;7.072;2023-04-01T07:14:48;11.00;99.90
33717;DHT22;20046;50.746;7.072;2023-04-01T07:17:15;11.10;99.90
33717;DHT22;20046;50.746;7.072;2023-04-01T07:24:54;11.30;99.90
33717;DHT22;20046;50.746;7.072;2023-04-01T07:27:20;11.40;99.90
33717;DHT22;20046;50.746;7.072;2023-04-01T07:29:45;11.40;99.90
33717;DHT22;20046;50.746;7.072;2023-04-01T07:34:55;11.40;99.90
33717;DHT22;20046;50.746;7.072;2023-04-01T07:52:48;11.60;99.90
33717;DHT22;20046;50.746;7.072;2023-04-01T07:55:24;11.60;99.90
33717;DHT22;20046;50.746;7.072;2023-04-01T08:06:04;11.70;99.90
33717;DHT22;20046;50.746;7.072;2023-04-01T08:08:40;11.70;99.90
33717;DHT22;20046;50.746;7.072;2023-04-01T08:11:22;11.60;99.90
33717;DHT22;20046;50.746;7.072;2023-04-01T08:13:54;11.60;99.90
33717;DHT22;20046;50.746;7.072;2023-04-01T08:16:30;11.50;99.90
33717;DHT22;20046;50.746;7.072;2023-04-01T08:21:31;11.50;99.90
33717;DHT22;20046;50.746;7.072;2023-04-01T08:23:58;11.60;99.90
33717;DHT22;20046;50.746;7.072;2023-04-01T08:29:06;11.70;99.90
33717;DHT22;20046;50.746;7.072;2023-04-01T08:31:36;11.70;99.90
33717;DHT22;20046;50.746;7.072;2023-04-01T08:34:08;11.80;99.90
33717;DHT22;20046;50.746;7.072;2023-04-01T08:36:36;11.80;99.90
33717;DHT22;20046;50.746;7.072;2023-04-01T08:39:18;11.80;99.90
33717;DHT22;20046;50.746;7.072;2023-04-01T08:44:37;11.70;99.90
33717;DHT22;20046;50.746;7.072;2023-04-01T08:52:29;11.70;99.90
33717;DHT22;20046;50.746;7.072;2023-04-01T09:07:40;11.80;99.90
33717;DHT22;20046;50.746;7.072;2023-04-01T09:10:29;11.70;99.90
33717;DHT22;20046;50.746;7.072;2023-04-01T09:41:27;11.90;99.90
33717;DHT22;20046;50.746;7.072;2023-04-01T09:46:23;12.10;99.90
33717;DHT22;20046;50.746;7.072;2023-04-01T09:48:56;12.30;99.90
33717;DHT22;20046;50.746;7.072;2023-04-01T10:14:37;12.80;99.90
33717;DHT22;20046;50.746;7.072;2023-04-01T10:19:41;12.90;99.90
33717;DHT22;20046;50.746;7.072;2023-04-01T10:22:23;12.90;99.90
33717;DHT22;20046;50.746;7.072;2023-04-01T10:32:20;12.90;99.90
33717;DHT22;20046;50.746;7.072;2023-04-01T11:19:10;13.90;99.90
33717;DHT22;20046;50.746;7.072;2023-04-01T11:32:07;13.60;99.90
33717;DHT22;20046;50.746;7.072;2023-04-01T11:34:49;13.50;99.90
33717;DHT22;20046;50.746;7.072;2023-04-01T11:39:47;13.30;99.90
33717;DHT22;20046;50.746;7.072;2023-04-01T11:48:03;13.30;99.90
33717;DHT22;20046;50.746;7.072;2023-04-01T12:00:55;13.00;99.90
33717;DHT22;20046;50.746;7.072;2023-04-01T12:11:08;12.90;99.90
33717;DHT22;20046;50.746;7.072;2023-04-01T12:16:29;13.00;99.90
33717;DHT22;20046;50.746;7.072;2023-04-01T12:24:17;13.30;99.90
33717;DHT22;20046;50.746;7.072;2023-04-01T12:29:37;13.40;99.90
33717;DHT22;20046;50.746;7.072;2023-04-01T12:32:12;13.40;99.90
33717;DHT22;20046;50.746;7.072;2023-04-01T12:35:22;13.40;99.90
33717;DHT22;20046;50.746;7.072;2023-04-01T13:03:13;13.10;99.90
33717;DHT22;20046;50.746;7.072;2023-04-01T13:11:14;12.90;99.90
33717;DHT22;20046;50.746;7.072;2023-04-01T13:16:19;12.70;99.90
33717;DHT22;20046;50.746;7.072;2023-04-01T13:26:50;12.80;99.90
33717;DHT22;20046;50.746;7.072;2023-04-01T13:31:57;13.00;99.90
33717;DHT22;20046;50.746;7.072;2023-04-01T13:34:37;13.30;99.90
33717;DHT22;20046;50.746;7.072;2023-04-01T13:42:18;14.60;99.90
33717;DHT22;20046;50.746;7.072;2023-04-01T13:49:59;14.50;99.90
33717;DHT22;20046;50.746;7.072;2023-04-01T13:55:14;14.20;99.90
33717;DHT22;20046;50.746;7.072;2023-04-01T14:05:36;14.10;99.90
33717;DHT22;20046;50.746;7.072;2023-04-01T14:08:14;14.10;99.90
33717;DHT22;20046;50.746;7.072;2023-04-01T14:10:43;14.50;99.90
33717;DHT22;20046;50.746;7.072;2023-04-01T14:15:54;15.30;99.90
33717;DHT22;20046;50.746;7.072;2023-04-01T14:18:37;15.30;99.90
33717;DHT22;20046;50.746;7.072;2023-04-01T14:34:27;15.50;99.90
33717;DHT22;20046;50.746;7.072;2023-04-01T14:40:00;15.20;99.90
33717;DHT22;20046;50.746;7.072;2023-04-01T14:42:38;15.10;99.90
33717;DHT22;20046;50.746;7.072;2023-04-01T14:48:00;14.90;99.90
33717;DHT22;20046;50.746;7.072;2023-04-01T14:50:45;14.90;99.90
33717;DHT22;20046;50.746;7.072;2023-04-01T14:55:50;14.90;99.90
33717;DHT22;20046;50.746;7.072;2023-04-01T14:58:17;14.80;99.90
33717;DHT22;20046;50.746;7.072;2023-04-01T15:08:33;14.00;99.90
33717;DHT22;20046;50.746;7.072;2023-04-01T15:11:11;13.80;99.90
33717;DHT22;20046;50.746;7.072;2023-04-01T15:13:52;13.80;99.90
33717;DHT22;20046;50.746;7.072;2023-04-01T15:32:02;13.60;99.90
33717;DHT22;20046;50.746;7.072;2023-04-01T15:37:16;13.40;99.90
33717;DHT22;20046;50.746;7.072;2023-04-01T15:45:17;13.10;99.90
33717;DHT22;20046;50.746;7.072;2023-04-01T15:47:57;13.10;99.90
33717;DHT22;20046;50.746;7.072;2023-04-01T15:56:07;13.20;99.90
33717;DHT22;20046;50.746;7.072;2023-04-01T15:58:42;13.20;99.90
33717;DHT22;20046;50.746;7.072;2023-04-01T16:03:56;13.20;99.90
33717;DHT22;20046;50.746;7.072;2023-04-01T16:11:28;13.00;99.90
33717;DHT22;20046;50.746;7.072;2023-04-01T16:14:07;12.90;99.90
33717;DHT22;20046;50.746;7.072;2023-04-01T16:19:16;12.80;99.90
33717;DHT22;20046;50.746;7.072;2023-04-01T16:21:51;12.70;99.90
33717;DHT22;20046;50.746;7.072;2023-04-01T16:27:02;12.50;99.90
33717;DHT22;20046;50.746;7.072;2023-04-01T16:37:47;12.40;99.90
33717;DHT22;20046;50.746;7.072;2023-04-01T16:42:49;12.30;99.90
33717;DHT22;20046;50.746;7.072;2023-04-01T16:45:22;12.30;99.90
33717;DHT22;20046;50.746;7.072;2023-04-01T16:47:51;12.40;99.90
33717;DHT22;20046;50.746;7.072;2023-04-01T16:50:19;12.40;99.90
33717;DHT22;20046;50.746;7.072;2023-04-01T16:52:59;12.30;99.90
33717;DHT22;20046;50.746;7.072;2023-04-01T16:55:41;12.30;99.90
33717;DHT22;20046;50.746;7.072;2023-04-01T16:58:08;12.20;99.90
33717;DHT22;20046;50.746;7.072;2023-04-01T17:00:39;12.10;99.90
33717;DHT22;20046;50.746;7.072;2023-04-01T17:08:06;11.80;99.90
33717;DHT22;20046;50.746;7.072;2023-04-01T17:10:42;11.70;99.90
33717;DHT22;20046;50.746;7.072;2023-04-01T17:23:43;11.40;99.90
33717;DHT22;20046;50.746;7.072;2023-04-01T17:39:38;11.20;99.90
33717;DHT22;20046;50.746;7.072;2023-04-01T17:42:08;11.20;99.90
33717;DHT22;20046;50.746;7.072;2023-04-01T17:44:38;11.10;99.90
33717;DHT22;20046;50.746;7.072;2023-04-01T17:54:53;11.00;99.90
33717;DHT22;20046;50.746;7.072;2023-04-01T17:57:30;11.00;99.90
33717;DHT22;20046;50.746;7.072;2023-04-01T18:00:01;11.00;99.90
33717;DHT22;20046;50.746;7.072;2023-04-01T18:02:53;10.90;99.90
33717;DHT22;20046;50.746;7.072;2023-04-01T18:15:27;10.80;99.90
33717;DHT22;20046;50.746;7.072;2023-04-01T18:18:06;10.80;99.90
33717;DHT22;20046;50.746;7.072;2023-04-01T18:20:54;10.80;99.90
33717;DHT22;20046;50.746;7.072;2023-04-01T18:23:38;10.70;99.90
33717;DHT22;20046;50.746;7.072;2023-04-01T18:26:28;10.70;99.90
33717;DHT22;20046;50.746;7.072;2023-04-01T18:31:34;10.60;99.90
33717;DHT22;20046;50.746;7.072;2023-04-01T18:44:25;10.60;99.90
33717;DHT22;20046;50.746;7.072;2023-04-01T18:46:55;10.50;99.90
33717;DHT22;20046;50.746;7.072;2023-04-01T18:49:46;10.50;99.90
33717;DHT22;20046;50.746;7.072;2023-04-01T18:52:24;10.50;99.90
33717;DHT22;20046;50.746;7.072;2023-04-01T19:01:00;10.50;99.90
33717;DHT22;20046;50.746;7.072;2023-04-01T19:03:10;10.50;99.90
33717;DHT22;20046;50.746;7.072;2023-04-01T19:05:39;10.40;99.90
33717;DHT22;20046;50.746;7.072;2023-04-01T19:08:17;10.40;99.90
33717;DHT22;20046;50.746;7.072;2023-04-01T19:10:59;10.30;99.90
33717;DHT22;20046;50.746;7.072;2023-04-01T19:13:30;10.30;99.90
33717;DHT22;20046;50.746;7.072;2023-04-01T19:21:10;10.30;99.90
33717;DHT22;20046;50.746;7.072;2023-04-01T19:26:13;10.30;99.90
33717;DHT22;20046;50.746;7.072;2023-04-01T19:34:37;10.30;99.90
33717;DHT22;20046;50.746;7.072;2023-04-01T19:42:16;10.20;99.90
33717;DHT22;20046;50.746;7.072;2023-04-01T19:47:21;10.20;99.90
33717;DHT22;20046;50.746;7.072;2023-04-01T19:49:50;10.20;99.90
33717;DHT22;20046;50.746;7.072;2023-04-01T19:52:32;10.20;99.90
33717;DHT22;20046;50.746;7.072;2023-04-01T20:02:56;10.10;99.90
33717;DHT22;20046;50.746;7.072;2023-04-01T20:05:30;10.00;99.90
33717;DHT22;20046;50.746;7.072;2023-04-01T20:10:46;10.00;99.90
33717;DHT22;20046;50.746;7.072;2023-04-01T20:16:05;10.00;99.90
33717;DHT22;20046;50.746;7.072;2023-04-01T20:19:04;10.00;99.90
33717;DHT22;20046;50.746;7.072;2023-04-01T20:24:02;10.00;99.90
33717;DHT22;20046;50.746;7.072;2023-04-01T20:26:33;9.90;99.90
33717;DHT22;20046;50.746;7.072;2023-04-01T20:29:18;9.90;99.90
33717;DHT22;20046;50.746;7.072;2023-04-01T20:31:53;9.90;99.90
33717;DHT22;20046;50.746;7.072;2023-04-01T20:34:22;9.90;99.90
33717;DHT22;20046;50.746;7.072;2023-04-01T20:37:10;9.90;99.90
33717;DHT22;20046;50.746;7.072;2023-04-01T20:42:17;9.80;99.90
33717;DHT22;20046;50.746;7.072;2023-04-01T20:47:24;9.80;99.90
33717;DHT22;20046;50.746;7.072;2023-04-01T20:52:49;9.80;99.90
33717;DHT22;20046;50.746;7.072;2023-04-01T21:07:54;9.70;99.90
33717;DHT22;20046;50.746;7.072;2023-04-01T21:10:41;9.70;99.90
33717;DHT22;20046;50.746;7.072;2023-04-01T21:18:24;9.70;99.90
33717;DHT22;20046;50.746;7.072;2023-04-01T21:33:34;9.60;99.90
33717;DHT22;20046;50.746;7.072;2023-04-01T21:38:49;9.60;99.90
33717;DHT22;20046;50.746;7.072;2023-04-01T21:41:33;9.60;99.90
33717;DHT22;20046;50.746;7.072;2023-04-01T22:10:21;9.50;99.90
33717;DHT22;20046;50.746;7.072;2023-04-01T22:18:55;9.50;99.90
33717;DHT22;20046;50.746;7.072;2023-04-01T22:21:24;9.50;99.90
33717;DHT22;20046;50.746;7.072;2023-04-01T22:26:38;9.50;99.90
33717;DHT22;20046;50.746;7.072;2023-04-01T22:29:15;9.50;99.90
33717;DHT22;20046;50.746;7.072;2023-04-01T22:31:53;9.50;99.90
33717;DHT22;20046;50.746;7.072;2023-04-01T22:37:16;9.50;99.90
33717;DHT22;20046;50.746;7.072;2023-04-01T22:39:54;9.50;99.90
33717;DHT22;20046;50.746;7.072;2023-04-01T22:50:10;9.40;99.90
33717;DHT22;20046;50.746;7.072;2023-04-01T22:52:42;9.40;99.90
33717;DHT22;20046;50.746;7.072;2023-04-01T22:55:12;9.40;99.90
33717;DHT22;20046;50.746;7.072;2023-04-01T22:57:40;9.40;99.90
33717;DHT22;20046;50.746;7.072;2023-04-01T23:00:53;9.40;99.90
33717;DHT22;20046;50.746;7.072;2023-04-01T23:05:39;9.40;99.90
33717;DHT22;20046;50.746;7.072;2023-04-01T23:11:05;9.40;99.90
33717;DHT22;20046;50.746;7.072;2023-04-01T23:13:33;9.40;99.90
33717;DHT22;20046;50.746;7.072;2023-04-01T23:15:59;9.40;99.90
33717;DHT22;20046;50.746;7.072;2023-04-01T23:18:27;9.40;99.90
33717;DHT22;20046;50.746;7.072;2023-04-01T23:21:14;9.40;99.90
33717;DHT22;20046;50.746;7.072;2023-04-01T23:23:50;9.40;99.90
33717;DHT22;20046;50.746;7.072;2023-04-01T23:26:21;9.40;99.90
33717;DHT22;20046;50.746;7.072;2023-04-01T23:28:53;9.40;99.90
33717;DHT22;20046;50.746;7.072;2023-04-01T23:34:01;9.40;99.90
33717;DHT22;20046;50.746;7.072;2023-04-01T23:36:27;9.40;99.90
33717;DHT22;20046;50.746;7.072;2023-04-01T23:38:53;9.40;99.90
33717;DHT22;20046;50.746;7.072;2023-04-01T23:41:23;9.40;99.90
33717;DHT22;20046;50.746;7.072;2023-04-01T23:43:58;9.30;99.90
33717;DHT22;20046;50.746;7.072;2023-04-01T23:46:25;9.40;99.90
33717;DHT22;20046;50.746;7.072;2023-04-01T23:48:51;9.40;99.90
33717;DHT22;20046;50.746;7.072;2023-04-01T23:53:46;9.40;99.90
33717;DHT22;20046;50.746;7.072;2023-04-01T23:56:13;9.40;99.90
